sensor_id;sensor_type;location;lat;lon;timestamp;pressure;altitude;pressure_sealevel;temperature;humidity
52441;BME280;39611;46.062;8.950;2023-03-26T00:00:43;96018.44;;;10.27;43.62
52441;BME280;39611;46.062;8.950;2023-03-26T00:03:10;96021.38;;;10.21;43.74
52441;BME280;39611;46.062;8.950;2023-03-26T00:05:38;96031.28;;;10.10;44.92
52441;BME280;39611;46.062;8.950;2023-03-26T00:08:05;96031.22;;;10.15;45.09
52441;BME280;39611;46.062;8.950;2023-03-26T00:10:37;96024.41;;;10.09;42.72
52441;BME280;39611;46.062;8.950;2023-03-26T00:13:05;96021.22;;;10.12;42.60
52441;BME280;39611;46.062;8.950;2023-03-26T00:15:33;96016.50;;;10.09;42.77
52441;BME280;39611;46.062;8.950;2023-03-26T00:18:00;96008.34;;;10.30;42.51
52441;BME280;39611;46.062;8.950;2023-03-26T00:20:28;96006.72;;;10.34;42.89
52441;BME280;39611;46.062;8.950;2023-03-26T00:22:54;96012.88;;;10.24;43.18
52441;BME280;39611;46.062;8.950;2023-03-26T00:25:21;96011.69;;;10.11;44.26
52441;BME280;39611;46.062;8.950;2023-03-26T00:27:49;96005.41;;;10.07;42.56
52441;BME280;39611;46.062;8.950;2023-03-26T00:30:16;96001.47;;;10.04;42.04
52441;BME280;39611;46.062;8.950;2023-03-26T00:32:43;95999.63;;;10.05;42.37
52441;BME280;39611;46.062;8.950;2023-03-26T00:35:19;96002.81;;;10.02;42.68
52441;BME280;39611;46.062;8.950;2023-03-26T00:37:45;96004.38;;;10.03;43.00
52441;BME280;39611;46.062;8.950;2023-03-26T00:40:12;96005.72;;;10.24;41.26
52441;BME280;39611;46.062;8.950;2023-03-26T00:42:38;95995.28;;;10.14;41.45
52441;BME280;39611;46.062;8.950;2023-03-26T00:45:06;95992.91;;;10.13;41.89
52441;BME280;39611;46.062;8.950;2023-03-26T00:47:33;95993.25;;;10.06;43.78
52441;BME280;39611;46.062;8.950;2023-03-26T00:49:59;95995.41;;;10.04;44.93
52441;BME280;39611;46.062;8.950;2023-03-26T00:52:26;95989.59;;;10.02;44.89
52441;BME280;39611;46.062;8.950;2023-03-26T00:54:54;95972.09;;;10.06;43.60
52441;BME280;39611;46.062;8.950;2023-03-26T00:57:21;95967.00;;;10.15;43.92
52441;BME280;39611;46.062;8.950;2023-03-26T01:00:00;95959.47;;;10.03;43.99
52441;BME280;39611;46.062;8.950;2023-03-26T01:02:41;95955.00;;;9.98;42.57
52441;BME280;39611;46.062;8.950;2023-03-26T01:05:40;95950.53;;;9.99;41.25
52441;BME280;39611;46.062;8.950;2023-03-26T01:08:32;95942.81;;;10.02;40.70
52441;BME280;39611;46.062;8.950;2023-03-26T01:11:04;95949.28;;;10.15;41.86
52441;BME280;39611;46.062;8.950;2023-03-26T01:13:35;95954.81;;;9.95;44.10
52441;BME280;39611;46.062;8.950;2023-03-26T01:16:08;95956.38;;;9.96;43.08
52441;BME280;39611;46.062;8.950;2023-03-26T01:18:37;95960.59;;;9.97;43.27
52441;BME280;39611;46.062;8.950;2023-03-26T01:21:07;95940.63;;;9.85;42.52
52441;BME280;39611;46.062;8.950;2023-03-26T01:23:39;95940.56;;;9.91;44.12
52441;BME280;39611;46.062;8.950;2023-03-26T01:29:03;95930.63;;;9.82;45.27
52441;BME280;39611;46.062;8.950;2023-03-26T01:37:23;95939.72;;;9.71;43.63
52441;BME280;39611;46.062;8.950;2023-03-26T01:39:55;95926.00;;;9.69;42.48
52441;BME280;39611;46.062;8.950;2023-03-26T01:42:51;95925.69;;;9.76;42.72
52441;BME280;39611;46.062;8.950;2023-03-26T01:45:23;95934.44;;;9.71;45.64
52441;BME280;39611;46.062;8.950;2023-03-26T01:47:52;95935.00;;;9.68;45.78
52441;BME280;39611;46.062;8.950;2023-03-26T01:50:18;95929.16;;;9.71;44.85
52441;BME280;39611;46.062;8.950;2023-03-26T01:52:45;95925.00;;;9.65;44.05
52441;BME280;39611;46.062;8.950;2023-03-26T01:55:11;95925.19;;;9.74;45.91
52441;BME280;39611;46.062;8.950;2023-03-26T02:00:14;95931.81;;;9.71;46.66
52441;BME280;39611;46.062;8.950;2023-03-26T02:03:03;95918.97;;;9.59;45.94
52441;BME280;39611;46.062;8.950;2023-03-26T02:05:39;95913.19;;;9.57;44.72
52441;BME280;39611;46.062;8.950;2023-03-26T02:08:16;95920.72;;;9.69;45.95
52441;BME280;39611;46.062;8.950;2023-03-26T02:10:49;95936.06;;;9.67;45.87
52441;BME280;39611;46.062;8.950;2023-03-26T02:13:17;95935.44;;;9.51;46.09
52441;BME280;39611;46.062;8.950;2023-03-26T02:15:55;95932.56;;;9.48;44.09
52441;BME280;39611;46.062;8.950;2023-03-26T02:18:23;95928.38;;;9.41;43.43
52441;BME280;39611;46.062;8.950;2023-03-26T02:20:51;95931.75;;;9.52;43.44
52441;BME280;39611;46.062;8.950;2023-03-26T02:23:20;95925.59;;;9.57;44.29
52441;BME280;39611;46.062;8.950;2023-03-26T02:25:47;95920.81;;;9.59;44.43
52441;BME280;39611;46.062;8.950;2023-03-26T02:28:14;95918.91;;;9.65;45.18
52441;BME280;39611;46.062;8.950;2023-03-26T02:30:42;95919.28;;;9.58;46.53
52441;BME280;39611;46.062;8.950;2023-03-26T02:33:11;95925.66;;;9.52;46.43
52441;BME280;39611;46.062;8.950;2023-03-26T02:35:40;95920.38;;;9.52;46.61
52441;BME280;39611;46.062;8.950;2023-03-26T02:38:11;95911.72;;;9.46;46.58
52441;BME280;39611;46.062;8.950;2023-03-26T02:40:40;95920.94;;;9.49;47.17
52441;BME280;39611;46.062;8.950;2023-03-26T02:43:06;95934.50;;;9.37;47.06
52441;BME280;39611;46.062;8.950;2023-03-26T02:45:33;95931.59;;;9.38;47.23
52441;BME280;39611;46.062;8.950;2023-03-26T02:48:00;95926.13;;;9.30;45.79
52441;BME280;39611;46.062;8.950;2023-03-26T02:50:27;95921.44;;;9.51;45.97
52441;BME280;39611;46.062;8.950;2023-03-26T02:52:53;95914.56;;;9.55;45.20
52441;BME280;39611;46.062;8.950;2023-03-26T02:55:20;95910.94;;;9.46;46.12
52441;BME280;39611;46.062;8.950;2023-03-26T02:57:46;95910.47;;;9.38;45.90
52441;BME280;39611;46.062;8.950;2023-03-26T03:00:13;95911.38;;;9.29;45.21
52441;BME280;39611;46.062;8.950;2023-03-26T03:02:39;95917.34;;;9.39;45.13
52441;BME280;39611;46.062;8.950;2023-03-26T03:05:06;95899.50;;;9.26;48.20
52441;BME280;39611;46.062;8.950;2023-03-26T03:07:33;95897.00;;;9.11;47.18
52441;BME280;39611;46.062;8.950;2023-03-26T03:10:05;95889.00;;;9.21;44.96
52441;BME280;39611;46.062;8.950;2023-03-26T03:12:33;95891.03;;;9.29;44.36
52441;BME280;39611;46.062;8.950;2023-03-26T03:15:00;95896.88;;;9.26;46.42
52441;BME280;39611;46.062;8.950;2023-03-26T03:17:26;95904.31;;;9.19;45.92
52441;BME280;39611;46.062;8.950;2023-03-26T03:19:53;95901.22;;;9.12;46.13
52441;BME280;39611;46.062;8.950;2023-03-26T03:22:19;95894.59;;;9.14;47.17
52441;BME280;39611;46.062;8.950;2023-03-26T03:24:46;95886.50;;;9.06;46.66
52441;BME280;39611;46.062;8.950;2023-03-26T03:27:12;95878.28;;;9.07;45.59
52441;BME280;39611;46.062;8.950;2023-03-26T03:29:39;95898.88;;;9.05;48.08
52441;BME280;39611;46.062;8.950;2023-03-26T03:32:06;95913.78;;;8.91;48.86
52441;BME280;39611;46.062;8.950;2023-03-26T03:34:32;95910.88;;;8.92;48.09
52441;BME280;39611;46.062;8.950;2023-03-26T03:36:59;95916.59;;;9.00;47.45
52441;BME280;39611;46.062;8.950;2023-03-26T03:39:25;95916.03;;;9.03;46.04
52441;BME280;39611;46.062;8.950;2023-03-26T03:41:52;95920.28;;;9.04;48.42
52441;BME280;39611;46.062;8.950;2023-03-26T03:44:18;95899.13;;;9.09;47.65
52441;BME280;39611;46.062;8.950;2023-03-26T03:46:45;95883.59;;;9.02;45.21
52441;BME280;39611;46.062;8.950;2023-03-26T03:49:14;95884.91;;;9.05;47.33
52441;BME280;39611;46.062;8.950;2023-03-26T03:51:40;95880.69;;;9.04;47.77
52441;BME280;39611;46.062;8.950;2023-03-26T03:54:07;95891.47;;;9.07;48.04
52441;BME280;39611;46.062;8.950;2023-03-26T03:56:34;95894.72;;;8.99;48.91
52441;BME280;39611;46.062;8.950;2023-03-26T03:59:01;95891.94;;;8.85;50.03
52441;BME280;39611;46.062;8.950;2023-03-26T04:01:28;95890.13;;;8.81;49.47
52441;BME280;39611;46.062;8.950;2023-03-26T04:03:56;95888.22;;;8.86;48.16
52441;BME280;39611;46.062;8.950;2023-03-26T04:06:23;95891.69;;;8.82;47.13
52441;BME280;39611;46.062;8.950;2023-03-26T04:08:51;95888.78;;;8.83;46.24
52441;BME280;39611;46.062;8.950;2023-03-26T04:11:17;95886.63;;;8.90;48.09
52441;BME280;39611;46.062;8.950;2023-03-26T04:13:43;95888.22;;;8.86;47.49
52441;BME280;39611;46.062;8.950;2023-03-26T04:16:10;95894.06;;;8.83;47.73
52441;BME280;39611;46.062;8.950;2023-03-26T04:18:37;95896.25;;;8.71;49.22
52441;BME280;39611;46.062;8.950;2023-03-26T04:21:04;95888.63;;;8.69;49.46
52441;BME280;39611;46.062;8.950;2023-03-26T04:23:33;95893.63;;;8.66;49.80
52441;BME280;39611;46.062;8.950;2023-03-26T04:26:02;95888.44;;;8.56;49.07
52441;BME280;39611;46.062;8.950;2023-03-26T04:28:43;95874.13;;;8.67;47.69
52441;BME280;39611;46.062;8.950;2023-03-26T04:31:14;95874.38;;;8.70;49.98
52441;BME280;39611;46.062;8.950;2023-03-26T04:33:46;95874.47;;;8.55;51.71
52441;BME280;39611;46.062;8.950;2023-03-26T04:36:14;95877.13;;;8.50;50.38
52441;BME280;39611;46.062;8.950;2023-03-26T04:38:44;95880.59;;;8.45;48.30
52441;BME280;39611;46.062;8.950;2023-03-26T04:41:12;95875.84;;;8.47;47.92
52441;BME280;39611;46.062;8.950;2023-03-26T04:43:38;95872.31;;;8.62;49.53
52441;BME280;39611;46.062;8.950;2023-03-26T04:46:13;95874.22;;;8.57;51.64
52441;BME280;39611;46.062;8.950;2023-03-26T04:48:39;95886.16;;;8.39;49.72
52441;BME280;39611;46.062;8.950;2023-03-26T04:51:06;95888.47;;;8.50;50.04
52441;BME280;39611;46.062;8.950;2023-03-26T04:53:33;95889.81;;;8.43;51.73
52441;BME280;39611;46.062;8.950;2023-03-26T04:56:05;95883.53;;;8.34;49.83
52441;BME280;39611;46.062;8.950;2023-03-26T04:58:34;95889.53;;;8.49;49.74
52441;BME280;39611;46.062;8.950;2023-03-26T05:01:01;95900.09;;;8.49;49.11
52441;BME280;39611;46.062;8.950;2023-03-26T05:03:35;95900.56;;;8.57;49.62
52441;BME280;39611;46.062;8.950;2023-03-26T05:06:09;95903.78;;;8.48;49.56
52441;BME280;39611;46.062;8.950;2023-03-26T05:08:36;95898.50;;;8.48;49.55
52441;BME280;39611;46.062;8.950;2023-03-26T05:11:03;95895.59;;;8.50;48.90
52441;BME280;39611;46.062;8.950;2023-03-26T05:13:32;95898.03;;;8.36;47.37
52441;BME280;39611;46.062;8.950;2023-03-26T05:15:58;95896.63;;;8.54;45.87
52441;BME280;39611;46.062;8.950;2023-03-26T05:18:25;95896.13;;;8.47;49.19
52441;BME280;39611;46.062;8.950;2023-03-26T05:20:52;95886.41;;;8.37;49.71
52441;BME280;39611;46.062;8.950;2023-03-26T05:23:18;95888.53;;;8.35;49.86
52441;BME280;39611;46.062;8.950;2023-03-26T05:25:45;95876.41;;;8.34;50.30
52441;BME280;39611;46.062;8.950;2023-03-26T05:28:12;95894.88;;;8.39;50.34
52441;BME280;39611;46.062;8.950;2023-03-26T05:30:38;95880.97;;;8.23;50.07
52441;BME280;39611;46.062;8.950;2023-03-26T05:33:05;95876.72;;;8.27;50.20
52441;BME280;39611;46.062;8.950;2023-03-26T05:35:31;95873.25;;;8.32;48.77
52441;BME280;39611;46.062;8.950;2023-03-26T05:37:58;95862.69;;;8.37;50.02
52441;BME280;39611;46.062;8.950;2023-03-26T05:40:24;95852.22;;;8.27;51.43
52441;BME280;39611;46.062;8.950;2023-03-26T05:42:51;95844.81;;;8.29;51.97
52441;BME280;39611;46.062;8.950;2023-03-26T05:45:17;95843.28;;;8.23;52.50
52441;BME280;39611;46.062;8.950;2023-03-26T05:47:44;95844.84;;;8.24;51.79
52441;BME280;39611;46.062;8.950;2023-03-26T05:50:10;95842.69;;;8.36;51.95
52441;BME280;39611;46.062;8.950;2023-03-26T05:52:37;95840.56;;;8.38;51.11
52441;BME280;39611;46.062;8.950;2023-03-26T05:55:04;95849.84;;;8.30;48.95
52441;BME280;39611;46.062;8.950;2023-03-26T05:57:31;95845.09;;;8.27;51.20
52441;BME280;39611;46.062;8.950;2023-03-26T05:59:57;95848.72;;;8.37;52.70
52441;BME280;39611;46.062;8.950;2023-03-26T06:02:24;95857.44;;;8.32;53.03
52441;BME280;39611;46.062;8.950;2023-03-26T06:04:50;95866.66;;;8.35;53.13
52441;BME280;39611;46.062;8.950;2023-03-26T06:07:18;95850.63;;;8.31;51.33
52441;BME280;39611;46.062;8.950;2023-03-26T06:09:45;95842.69;;;8.41;51.45
52441;BME280;39611;46.062;8.950;2023-03-26T06:12:12;95854.75;;;8.47;53.38
52441;BME280;39611;46.062;8.950;2023-03-26T06:14:38;95872.66;;;8.50;53.76
52441;BME280;39611;46.062;8.950;2023-03-26T06:17:08;95872.16;;;8.48;54.96
52441;BME280;39611;46.062;8.950;2023-03-26T06:19:35;95876.91;;;8.46;55.86
52441;BME280;39611;46.062;8.950;2023-03-26T06:22:02;95878.25;;;8.39;54.47
52441;BME280;39611;46.062;8.950;2023-03-26T06:24:29;95881.91;;;8.43;53.32
52441;BME280;39611;46.062;8.950;2023-03-26T06:26:56;95885.38;;;8.43;56.08
52441;BME280;39611;46.062;8.950;2023-03-26T06:29:23;95889.03;;;8.42;52.40
52441;BME280;39611;46.062;8.950;2023-03-26T06:31:49;95892.69;;;8.51;49.11
52441;BME280;39611;46.062;8.950;2023-03-26T06:34:16;95891.03;;;8.61;49.04
52441;BME280;39611;46.062;8.950;2023-03-26T06:36:42;95892.56;;;8.72;50.24
52441;BME280;39611;46.062;8.950;2023-03-26T06:39:09;95886.69;;;8.80;51.45
52441;BME280;39611;46.062;8.950;2023-03-26T06:41:35;95888.97;;;8.92;49.01
52441;BME280;39611;46.062;8.950;2023-03-26T06:44:02;95890.81;;;8.91;50.16
52441;BME280;39611;46.062;8.950;2023-03-26T06:46:28;95897.91;;;8.96;49.74
52441;BME280;39611;46.062;8.950;2023-03-26T06:48:54;95888.88;;;9.02;49.57
52441;BME280;39611;46.062;8.950;2023-03-26T06:51:21;95892.00;;;9.09;49.78
52441;BME280;39611;46.062;8.950;2023-03-26T06:53:48;95884.97;;;9.29;47.42
52441;BME280;39611;46.062;8.950;2023-03-26T06:56:14;95897.72;;;10.18;46.71
52441;BME280;39611;46.062;8.950;2023-03-26T06:58:41;95906.03;;;10.87;43.76
52441;BME280;39611;46.062;8.950;2023-03-26T07:01:07;95903.91;;;11.22;42.76
52441;BME280;39611;46.062;8.950;2023-03-26T07:03:34;95897.31;;;11.66;42.24
52441;BME280;39611;46.062;8.950;2023-03-26T07:06:00;95893.34;;;11.96;42.60
52441;BME280;39611;46.062;8.950;2023-03-26T07:08:27;95894.50;;;11.90;43.63
52441;BME280;39611;46.062;8.950;2023-03-26T07:10:53;95896.09;;;11.91;44.91
52441;BME280;39611;46.062;8.950;2023-03-26T07:13:20;95897.72;;;12.14;43.94
52441;BME280;39611;46.062;8.950;2023-03-26T07:15:47;95886.88;;;12.38;43.42
52441;BME280;39611;46.062;8.950;2023-03-26T07:18:14;95880.25;;;12.50;41.86
52441;BME280;39611;46.062;8.950;2023-03-26T07:20:42;95881.41;;;12.71;41.66
52441;BME280;39611;46.062;8.950;2023-03-26T07:23:10;95877.34;;;12.74;41.10
52441;BME280;39611;46.062;8.950;2023-03-26T07:25:37;95875.06;;;12.58;41.33
52441;BME280;39611;46.062;8.950;2023-03-26T07:28:17;95878.78;;;12.57;42.47
52441;BME280;39611;46.062;8.950;2023-03-26T07:30:55;95877.09;;;12.61;41.53
52441;BME280;39611;46.062;8.950;2023-03-26T07:33:40;95866.53;;;12.70;41.40
52441;BME280;39611;46.062;8.950;2023-03-26T07:36:31;95850.25;;;12.63;40.63
52441;BME280;39611;46.062;8.950;2023-03-26T07:41:44;95814.75;;;12.14;40.40
52441;BME280;39611;46.062;8.950;2023-03-26T07:47:14;95780.53;;;11.76;41.17
52441;BME280;39611;46.062;8.950;2023-03-26T07:49:43;95783.09;;;11.67;41.25
52441;BME280;39611;46.062;8.950;2023-03-26T07:52:10;95783.69;;;11.64;41.39
52441;BME280;39611;46.062;8.950;2023-03-26T07:54:36;95780.84;;;11.61;41.36
52441;BME280;39611;46.062;8.950;2023-03-26T07:57:17;95797.22;;;11.49;41.36
52441;BME280;39611;46.062;8.950;2023-03-26T08:02:30;95806.06;;;11.44;42.24
52441;BME280;39611;46.062;8.950;2023-03-26T08:10:19;95823.72;;;11.49;41.68
52441;BME280;39611;46.062;8.950;2023-03-26T08:13:15;95813.41;;;11.61;42.17
52441;BME280;39611;46.062;8.950;2023-03-26T08:21:38;95798.19;;;11.67;41.08
52441;BME280;39611;46.062;8.950;2023-03-26T08:32:17;95786.34;;;11.78;43.02
52441;BME280;39611;46.062;8.950;2023-03-26T08:34:44;95788.81;;;11.88;43.19
52441;BME280;39611;46.062;8.950;2023-03-26T08:37:11;95798.31;;;11.89;39.99
52441;BME280;39611;46.062;8.950;2023-03-26T08:39:38;95782.59;;;11.93;40.31
52441;BME280;39611;46.062;8.950;2023-03-26T09:02:09;95781.75;;;12.20;40.94
52441;BME280;39611;46.062;8.950;2023-03-26T09:16:28;95724.56;;;12.28;42.16
52441;BME280;39611;46.062;8.950;2023-03-26T09:27:22;95720.84;;;12.60;41.70
52441;BME280;39611;46.062;8.950;2023-03-26T09:38:42;95746.25;;;12.52;43.66
52441;BME280;39611;46.062;8.950;2023-03-26T09:43:55;95758.69;;;12.43;45.82
52441;BME280;39611;46.062;8.950;2023-03-26T09:55:43;95750.66;;;12.34;46.65
52441;BME280;39611;46.062;8.950;2023-03-26T10:03:37;95727.44;;;12.40;50.59
52441;BME280;39611;46.062;8.950;2023-03-26T10:11:51;95718.66;;;12.31;43.80
52441;BME280;39611;46.062;8.950;2023-03-26T10:14:37;95703.03;;;12.29;42.00
52441;BME280;39611;46.062;8.950;2023-03-26T10:20:27;95687.81;;;12.35;42.83
52441;BME280;39611;46.062;8.950;2023-03-26T10:25:53;95675.97;;;12.41;42.50
52441;BME280;39611;46.062;8.950;2023-03-26T10:28:39;95673.00;;;12.42;43.18
52441;BME280;39611;46.062;8.950;2023-03-26T10:34:13;95688.06;;;12.56;46.16
52441;BME280;39611;46.062;8.950;2023-03-26T10:56:39;95621.78;;;13.13;49.56
52441;BME280;39611;46.062;8.950;2023-03-26T10:59:10;95626.19;;;13.26;48.10
52441;BME280;39611;46.062;8.950;2023-03-26T11:07:05;95601.81;;;13.59;53.00
52441;BME280;39611;46.062;8.950;2023-03-26T11:09:46;95605.28;;;13.60;53.26
52441;BME280;39611;46.062;8.950;2023-03-26T11:12:28;95614.03;;;13.60;55.96
52441;BME280;39611;46.062;8.950;2023-03-26T11:20:18;95608.09;;;13.46;54.80
52441;BME280;39611;46.062;8.950;2023-03-26T11:22:57;95603.06;;;13.36;54.50
52441;BME280;39611;46.062;8.950;2023-03-26T11:31:07;95598.84;;;13.26;57.42
52441;BME280;39611;46.062;8.950;2023-03-26T11:33:42;95585.72;;;13.21;55.43
52441;BME280;39611;46.062;8.950;2023-03-26T11:36:16;95586.78;;;13.11;57.58
52441;BME280;39611;46.062;8.950;2023-03-26T11:38:46;95588.31;;;13.03;57.73
52441;BME280;39611;46.062;8.950;2023-03-26T11:41:20;95598.81;;;13.08;58.56
52441;BME280;39611;46.062;8.950;2023-03-26T11:43:53;95598.47;;;13.01;57.75
52441;BME280;39611;46.062;8.950;2023-03-26T11:46:22;95601.75;;;12.98;57.55
52441;BME280;39611;46.062;8.950;2023-03-26T11:48:58;95597.97;;;12.90;58.58
52441;BME280;39611;46.062;8.950;2023-03-26T11:51:29;95606.56;;;12.87;59.27
52441;BME280;39611;46.062;8.950;2023-03-26T11:53:58;95612.00;;;12.82;59.70
52441;BME280;39611;46.062;8.950;2023-03-26T11:56:33;95622.00;;;12.77;61.13
52441;BME280;39611;46.062;8.950;2023-03-26T11:59:05;95624.00;;;12.71;62.21
52441;BME280;39611;46.062;8.950;2023-03-26T12:01:50;95626.78;;;12.66;64.09
52441;BME280;39611;46.062;8.950;2023-03-26T12:04:33;95636.44;;;12.62;63.49
52441;BME280;39611;46.062;8.950;2023-03-26T12:07:33;95645.78;;;12.59;65.79
52441;BME280;39611;46.062;8.950;2023-03-26T12:10:03;95635.94;;;12.51;67.79
52441;BME280;39611;46.062;8.950;2023-03-26T12:12:45;95633.81;;;12.39;69.38
52441;BME280;39611;46.062;8.950;2023-03-26T12:15:17;95627.59;;;12.35;67.66
52441;BME280;39611;46.062;8.950;2023-03-26T12:17:50;95625.94;;;12.17;65.76
52441;BME280;39611;46.062;8.950;2023-03-26T12:22:53;95626.19;;;12.07;64.44
52441;BME280;39611;46.062;8.950;2023-03-26T12:25:26;95623.94;;;12.00;68.72
52441;BME280;39611;46.062;8.950;2023-03-26T12:28:15;95616.00;;;12.00;73.43
52441;BME280;39611;46.062;8.950;2023-03-26T12:30:59;95613.94;;;11.97;72.65
52441;BME280;39611;46.062;8.950;2023-03-26T12:33:29;95603.34;;;11.97;71.80
52441;BME280;39611;46.062;8.950;2023-03-26T12:36:17;95594.50;;;12.01;72.84
52441;BME280;39611;46.062;8.950;2023-03-26T12:38:44;95600.25;;;11.81;77.04
52441;BME280;39611;46.062;8.950;2023-03-26T12:41:36;95593.25;;;11.85;78.05
52441;BME280;39611;46.062;8.950;2023-03-26T12:44:28;95578.09;;;11.77;76.57
52441;BME280;39611;46.062;8.950;2023-03-26T12:47:21;95566.19;;;11.66;78.17
52441;BME280;39611;46.062;8.950;2023-03-26T12:50:12;95556.59;;;11.56;80.32
52441;BME280;39611;46.062;8.950;2023-03-26T12:56:00;95561.53;;;11.71;78.79
52441;BME280;39611;46.062;8.950;2023-03-26T13:04:25;95555.22;;;11.58;79.80
52441;BME280;39611;46.062;8.950;2023-03-26T13:06:56;95531.50;;;11.53;81.71
52441;BME280;39611;46.062;8.950;2023-03-26T13:09:35;95526.56;;;11.61;82.52
52441;BME280;39611;46.062;8.950;2023-03-26T13:12:28;95520.16;;;11.62;78.89
52441;BME280;39611;46.062;8.950;2023-03-26T13:15:05;95524.69;;;11.61;76.08
52441;BME280;39611;46.062;8.950;2023-03-26T13:20:10;95514.16;;;11.47;74.68
52441;BME280;39611;46.062;8.950;2023-03-26T13:25:42;95522.66;;;11.58;73.53
52441;BME280;39611;46.062;8.950;2023-03-26T13:30:48;95520.28;;;11.56;78.99
52441;BME280;39611;46.062;8.950;2023-03-26T13:33:32;95509.25;;;11.54;80.15
52441;BME280;39611;46.062;8.950;2023-03-26T13:38:55;95501.63;;;11.62;82.21
52441;BME280;39611;46.062;8.950;2023-03-26T13:41:44;95489.16;;;11.62;79.37
52441;BME280;39611;46.062;8.950;2023-03-26T13:44:31;95484.31;;;11.55;79.24
52441;BME280;39611;46.062;8.950;2023-03-26T13:47:28;95490.22;;;11.52;78.06
52441;BME280;39611;46.062;8.950;2023-03-26T13:50:02;95487.56;;;11.52;75.71
52441;BME280;39611;46.062;8.950;2023-03-26T13:58:09;95458.19;;;11.40;76.13
52441;BME280;39611;46.062;8.950;2023-03-26T14:03:26;95456.53;;;11.44;75.77
52441;BME280;39611;46.062;8.950;2023-03-26T14:05:59;95453.25;;;11.47;77.90
52441;BME280;39611;46.062;8.950;2023-03-26T14:08:35;95454.41;;;11.55;80.14
52441;BME280;39611;46.062;8.950;2023-03-26T14:13:47;95424.53;;;11.63;84.24
52441;BME280;39611;46.062;8.950;2023-03-26T14:16:24;95406.91;;;11.67;82.11
52441;BME280;39611;46.062;8.950;2023-03-26T14:19:00;95389.34;;;11.71;80.40
52441;BME280;39611;46.062;8.950;2023-03-26T14:29:58;95376.72;;;11.77;81.33
52441;BME280;39611;46.062;8.950;2023-03-26T14:32:47;95358.50;;;11.75;80.73
52441;BME280;39611;46.062;8.950;2023-03-26T14:38:01;95334.34;;;11.77;80.30
52441;BME280;39611;46.062;8.950;2023-03-26T14:40:55;95331.41;;;11.78;79.06
52441;BME280;39611;46.062;8.950;2023-03-26T14:43:49;95348.84;;;11.79;76.26
52441;BME280;39611;46.062;8.950;2023-03-26T14:54:49;95341.03;;;11.66;75.74
52441;BME280;39611;46.062;8.950;2023-03-26T15:11:56;95305.31;;;11.54;78.88
52441;BME280;39611;46.062;8.950;2023-03-26T15:15:11;95324.16;;;11.62;77.44
52441;BME280;39611;46.062;8.950;2023-03-26T15:20:49;95312.59;;;11.49;77.57
52441;BME280;39611;46.062;8.950;2023-03-26T15:29:01;95300.31;;;11.53;79.35
52441;BME280;39611;46.062;8.950;2023-03-26T15:43:05;95284.72;;;11.51;79.26
52441;BME280;39611;46.062;8.950;2023-03-26T15:53:22;95273.88;;;11.70;75.94
52441;BME280;39611;46.062;8.950;2023-03-26T15:55:59;95269.03;;;11.72;75.92
52441;BME280;39611;46.062;8.950;2023-03-26T16:04:11;95275.72;;;11.70;73.49
52441;BME280;39611;46.062;8.950;2023-03-26T16:06:56;95276.53;;;11.70;71.28
52441;BME280;39611;46.062;8.950;2023-03-26T16:20:49;95268.44;;;11.75;74.76
52441;BME280;39611;46.062;8.950;2023-03-26T16:23:33;95248.78;;;11.76;71.86
52441;BME280;39611;46.062;8.950;2023-03-26T16:31:25;95212.28;;;11.65;73.95
52441;BME280;39611;46.062;8.950;2023-03-26T16:36:34;95241.44;;;11.65;72.31
52441;BME280;39611;46.062;8.950;2023-03-26T16:39:45;95246.28;;;11.63;73.27
52441;BME280;39611;46.062;8.950;2023-03-26T16:42:37;95220.25;;;11.47;74.05
52441;BME280;39611;46.062;8.950;2023-03-26T16:45:32;95200.88;;;11.38;74.62
52441;BME280;39611;46.062;8.950;2023-03-26T16:48:08;95191.41;;;11.37;72.65
52441;BME280;39611;46.062;8.950;2023-03-26T16:56:09;95182.34;;;11.21;74.61
52441;BME280;39611;46.062;8.950;2023-03-26T16:58:53;95188.22;;;11.18;75.48
52441;BME280;39611;46.062;8.950;2023-03-26T17:01:36;95185.28;;;11.10;76.37
52441;BME280;39611;46.062;8.950;2023-03-26T17:04:15;95176.22;;;11.03;76.92
52441;BME280;39611;46.062;8.950;2023-03-26T17:06:55;95163.13;;;11.06;75.69
52441;BME280;39611;46.062;8.950;2023-03-26T17:15:06;95135.13;;;11.05;74.15
52441;BME280;39611;46.062;8.950;2023-03-26T17:26:27;95149.34;;;11.27;66.25
52441;BME280;39611;46.062;8.950;2023-03-26T17:28:57;95149.47;;;11.22;68.01
52441;BME280;39611;46.062;8.950;2023-03-26T17:37:08;95130.03;;;11.35;58.96
52441;BME280;39611;46.062;8.950;2023-03-26T17:44:44;95148.56;;;11.35;57.61
52441;BME280;39611;46.062;8.950;2023-03-26T17:47:18;95149.97;;;11.32;56.84
52441;BME280;39611;46.062;8.950;2023-03-26T17:49:46;95158.19;;;11.31;56.30
52441;BME280;39611;46.062;8.950;2023-03-26T17:52:26;95154.91;;;11.25;55.96
52441;BME280;39611;46.062;8.950;2023-03-26T17:54:59;95156.94;;;11.20;57.69
52441;BME280;39611;46.062;8.950;2023-03-26T17:57:43;95155.34;;;11.10;59.13
52441;BME280;39611;46.062;8.950;2023-03-26T18:00:30;95154.72;;;11.04;60.39
52441;BME280;39611;46.062;8.950;2023-03-26T18:03:01;95159.38;;;10.90;60.81
52441;BME280;39611;46.062;8.950;2023-03-26T18:05:30;95155.00;;;10.94;59.97
52441;BME280;39611;46.062;8.950;2023-03-26T18:10:57;95173.50;;;10.85;62.75
52441;BME280;39611;46.062;8.950;2023-03-26T18:13:44;95168.69;;;10.87;60.82
52441;BME280;39611;46.062;8.950;2023-03-26T18:16:30;95168.78;;;10.74;61.04
52441;BME280;39611;46.062;8.950;2023-03-26T18:19:12;95165.34;;;10.64;62.28
52441;BME280;39611;46.062;8.950;2023-03-26T18:21:52;95171.53;;;10.60;64.37
52441;BME280;39611;46.062;8.950;2023-03-26T18:24:22;95176.19;;;10.54;65.66
52441;BME280;39611;46.062;8.950;2023-03-26T18:27:09;95185.31;;;10.48;67.15
52441;BME280;39611;46.062;8.950;2023-03-26T18:29:42;95183.41;;;10.40;68.02
52441;BME280;39611;46.062;8.950;2023-03-26T18:34:38;95176.19;;;10.32;67.39
52441;BME280;39611;46.062;8.950;2023-03-26T18:37:14;95176.81;;;10.28;69.44
52441;BME280;39611;46.062;8.950;2023-03-26T18:39:56;95172.84;;;10.17;70.53
52441;BME280;39611;46.062;8.950;2023-03-26T18:42:24;95176.53;;;10.16;70.16
52441;BME280;39611;46.062;8.950;2023-03-26T18:44:52;95183.53;;;10.12;69.43